Erwin Heights, North Carolina
Current Conditions -  °F | °C
As of 11:35 PM on Thursday 18 Dec 2014 (Local Time) from KEXX Reporting Station
Overcast Overcast  
Wind Chill: 42°   Ceiling: 7000
Heat Index: 42°   Visibility: 10mi
Dew Point: 28°   Wind: 0mph
Humidity: 60%   Direction: NA
Pressure: 30.11"   Gusts: NA
Location:  35.864°N, 80.1016°W
Report Text: KEXX 190435Z AUTO 00000KT 10SM OVC070 05/M02 A3011 RMK AO2 T00531020
Loading
Personal Weather Stations






























Interactive Weather Map New forecast layout! Learn more

10-Day Weather Forecast

Advertisements
Track Severe Weather on mobile